HGLO2: Hugo Lake

Data processed at Fri Mar 09 2018 23:11


All information presented herein is the property of the government of the United States of America and may be revised or deleted at any time without prior notice.
Dissemination of this information without the expressed written consent of the Public Affairs Office, Tulsa District U.S. Army Corps of Engineers is strictly prohibited.
These data are gathered electronically and, as presented, have not undergone any form of quality control. These data are not guaranteed to be valid or correct.
Go to home page.
Go to station list.

Upstream stations:

Downstream station:
Previous Day
Next Day
Current Day
    
SHEF ID:       HGLO2     Hugo Lake
STATION TYPE:  RESERVOIR
Normal Pool:  Bottom =   390.00, Top =   404.50

               PRECIP ELEVATION   STORAGE    INFLOW   RELEASE  AIR-TEMP  WIND-DIRWIND-SPEED REL-HUMID SOLAR-RAD   VOLTAGE  BAT-LOAD
                   in        ft     ac-ft       cfs       cfs         F       deg       mph         %      W/m2      volt      volt
              Ccp-Rev   Ccp-Rev   Ccp-Rev  Regi-Rev  Regi-Rev   Ccp-Rev   Ccp-Rev   Ccp-Rev   Ccp-Rev   Ccp-Rev   Ccp-Rev   Ccp-Rev
(US/Central)
03/07 00:00      0.00    424.90    552958       337     19156     48.78    358.10     25.60     39.88      0.00     13.54     13.13
03/07 01:00      0.00    424.77    549464        62     19141     45.52      4.30     20.80     41.88      0.00     13.54     13.13
03/07 02:00      0.00    424.71    547852      1194     19118     43.72      8.30     14.70     43.65      0.00     13.54     13.13
03/07 03:00      0.00    424.66    546508      1194     19105     42.71      3.60     14.70     48.28      0.00     13.53     13.13
03/07 04:00      0.00    424.62    545433      1756     19094     42.19    356.30     20.30     52.72      0.00     13.36     13.13
03/07 05:00      0.00    424.56    543820      2284     19082     40.39      7.60     13.40     52.22      0.00     13.53     13.13
03/07 06:00      0.00    424.51    542477      4112     19069     39.31      8.00     13.80     55.33      0.00     13.53     13.13
03/07 07:00      0.00    424.46    541133      3099     19057     38.98    356.90     11.70     59.01      0.00     13.53     13.13
03/07 08:00      0.00    424.43    540327      3219     19047     39.72    333.60     15.20     62.40     98.10     13.53     13.13
03/07 09:00      0.00    424.37    538714      2776     19036     39.92    339.80     15.50     62.08    300.10     13.53     13.13
03/07 10:00      0.00    424.32    537371      4065     19023     40.60    347.10     13.40     59.00    496.60     13.53     13.13
03/07 11:00      0.00    424.26    535758      3318     19010     42.04    348.70     12.10     55.57    662.90     13.53     13.13
03/07 12:00      0.00    424.23    534952      3198     18999     44.08    354.70     10.50     51.41    788.10     13.53     13.13
03/07 13:00      0.00    424.19    533877      3800     18991     47.08    350.20     15.90     48.13    815.40     13.53     13.13
03/07 14:00      0.00    424.13    532265      4399     19083     48.87    351.80     14.20     44.43    788.70     13.53     13.13
03/07 15:00      0.00    424.08    530921      3297     19864     51.13    348.10     13.60     41.24    698.00     13.53     13.13
03/07 16:00      0.00    424.03    529577      2977     19851     53.08    341.50     12.30     38.55    540.80     13.54     13.13
03/07 17:00      0.00    423.98    528246      3732     19838     54.39    339.40     10.40     37.22    339.10     13.54     13.13
03/07 18:00      0.00    423.93    526934      3767     19825     54.36    337.70     10.60     38.58    114.40     13.54     13.13
03/07 19:00      0.00    423.88    525623      3831     19657     52.77    317.70      7.80     40.52      0.20     13.54     13.13
03/07 20:00      0.00    423.83    524311      3865     19644     51.75    322.10      7.10     45.93      0.00     13.54     13.13
03/07 21:00      0.00    423.78    522999      3852     19787     49.89    304.90      3.70     47.99      0.00     13.54     13.13
03/07 22:00      0.00    423.73    521687      3871     19775     44.42    177.70      1.60     65.91      0.00     13.53     13.13
03/07 23:00      0.00    423.68    520375      4524     19762     41.22    179.60      2.20     80.56      0.00     13.53     13.13